Rysy — C6ZA3 — position and weather

sailwx.info

Track history (hours):
 
Tides and Currents Weather Stations Pressure Air Temp Water Temp Dewpoint Dewpoint Depression Visibility Wind Speed Wind Dir Waves Ship Positions

Rysy

Last reported at 2016-Jul-04 21:26 UTC. Time now 2016-Jul-28 22:17 UTC.
Position N 31°23' E 032°20'.
Warning: this ship's position is 24 days out of date.

Length 229 m; draft 12.7 m.

Type: Cargo ship. MMSI: 311051200.

Date/timePositionNaut miles runAvg speedWind from/ knotsBaromVisibWave heightAir tempDewpointWater temp
2016-Jul-04 21:26N 31°23' E 032°20'89 4.5
2016-Jul-04 01:33N 32°09' E 030°50'1312.3
2016-Jul-04 00:31N 32°13' E 030°35'  
2016-Jul-01 16:16N 35°49' E 017°06'913.0
2016-Jul-01 15:33N 35°52' E 016°55'1312.7
2016-Jul-01 14:33N 35°56' E 016°40'1212.5
2016-Jul-01 13:33N 35°59' E 016°25'1212.4
2016-Jul-01 12:33N 36°03' E 016°11'1212.2
2016-Jul-01 11:33N 36°06' E 015°56'1212.0
2016-Jul-01 10:33N 36°11' E 015°42'1312.5
2016-Jul-01 09:33N 36°14' E 015°28'1312.7
2016-Jul-01 08:33N 36°18' E 015°12'1312.5
2016-Jul-01 07:33N 36°22' E 014°58'1212.1
2016-Jul-01 06:33N 36°26' E 014°44'1313.0
2016-Jul-01 05:33N 36°29' E 014°28'1313.4
2016-Jul-01 04:33N 36°34' E 014°12'1313.3
2016-Jul-01 03:33N 36°38' E 013°57'1312.8
2016-Jul-01 02:33N 36°42' E 013°41'1313.2
2016-Jul-01 01:33N 36°46' E 013°26'1313.3
2016-Jul-01 00:33N 36°50' E 013°10'1312.7
2016-Jun-30 23:33N 36°54' E 012°55'1212.3
2016-Jun-30 22:33N 36°58' E 012°40'1212.2
2016-Jun-30 21:33N 37°02' E 012°26'1212.4
2016-Jun-30 20:33N 37°05' E 012°11'1212.6
2016-Jun-30 19:33N 37°09' E 011°56'1312.9
2016-Jun-30 18:33N 37°13' E 011°40'1313.0
2016-Jun-30 17:33N 37°17' E 011°25'1312.7
2016-Jun-30 16:33N 37°22' E 011°10'1212.2
2016-Jun-30 15:33N 37°25' E 010°55'1212.3
2016-Jun-30 14:33N 37°28' E 010°40'1212.4
2016-Jun-30 13:33N 37°31' E 010°25'1212.4
2016-Jun-30 12:33N 37°33' E 010°10'1312.8
2016-Jun-30 11:32N 37°32' E 009°53'1512.4
2016-Jun-30 10:22N 37°28' E 009°35'1012.4
2016-Jun-30 09:33N 37°25' E 009°23'1212.4
2016-Jun-30 08:33N 37°22' E 009°08'1312.3
2016-Jun-30 07:29N 37°18' E 008°52'3712.5
2016-Jun-30 04:32N 37°17' E 008°06'11012.3
2016-Jun-29 19:33N 37°18' E 005°48'16112.1
2016-Jun-29 06:13N 37°05' E 002°26'14612.4
2016-Jun-28 18:23N 36°30' W 000°31'1011.7
2016-Jun-28 17:33N 36°27' W 000°43'22411.8
2016-Jun-27 22:33N 35°59' W 005°19'15411.9
2016-Jun-27 09:33N 36°23' W 008°27'1412.7
2016-Jun-27 08:26N 36°27' W 008°44'1112.6
2016-Jun-27 07:34N 36°30' W 008°58'1312.5
2016-Jun-27 06:33N 36°33' W 009°13'1311.8
2016-Jun-27 05:28N 36°41' W 009°25'1211.6
2016-Jun-27 04:27N 36°50' W 009°34'3912.7
2016-Jun-27 01:24N 37°28' W 009°46'1112.6
2016-Jun-27 00:33N 37°38' W 009°50'1512.5
2016-Jun-26 23:23N 37°52' W 009°55'1012.7
2016-Jun-26 22:33N 38°02' W 009°59'1312.7
2016-Jun-26 21:33N 38°15' W 010°01'1312.7
2016-Jun-26 20:33N 38°27' W 010°03'1312.7
2016-Jun-26 19:33N 38°40' W 010°06'1512.7
2016-Jun-26 18:23N 38°55' W 010°06'1112.4
2016-Jun-26 17:31N 39°05' W 010°06'  
Track history (hours):
 
Tides and Currents Weather Stations Pressure Air Temp Water Temp Dewpoint Dewpoint Depression Visibility Wind Speed Wind Dir Waves Ship Positions

Rysy

Last reported at 2016-Jul-04 21:26 UTC. Time now 2016-Jul-28 22:17 UTC.
Position N 31°23' E 032°20'.
Warning: this ship's position is 24 days out of date.

Length 229 m; draft 12.7 m.

Type: Cargo ship. MMSI: 311051200.

Date/timePositionNaut miles runAvg speedWind from/ knotsBaromVisibWave heightAir tempDewpointWater temp
2016-Jul-04 21:26N 31°23' E 032°20'89 4.5
2016-Jul-04 01:33N 32°09' E 030°50'1312.3
2016-Jul-04 00:31N 32°13' E 030°35'  
2016-Jul-01 16:16N 35°49' E 017°06'913.0
2016-Jul-01 15:33N 35°52' E 016°55'1312.7
2016-Jul-01 14:33N 35°56' E 016°40'1212.5
2016-Jul-01 13:33N 35°59' E 016°25'1212.4
2016-Jul-01 12:33N 36°03' E 016°11'1212.2
2016-Jul-01 11:33N 36°06' E 015°56'1212.0
2016-Jul-01 10:33N 36°11' E 015°42'1312.5
2016-Jul-01 09:33N 36°14' E 015°28'1312.7
2016-Jul-01 08:33N 36°18' E 015°12'1312.5
2016-Jul-01 07:33N 36°22' E 014°58'1212.1
2016-Jul-01 06:33N 36°26' E 014°44'1313.0
2016-Jul-01 05:33N 36°29' E 014°28'1313.4
2016-Jul-01 04:33N 36°34' E 014°12'1313.3
2016-Jul-01 03:33N 36°38' E 013°57'1312.8
2016-Jul-01 02:33N 36°42' E 013°41'1313.2
2016-Jul-01 01:33N 36°46' E 013°26'1313.3
2016-Jul-01 00:33N 36°50' E 013°10'1312.7
2016-Jun-30 23:33N 36°54' E 012°55'1212.3
2016-Jun-30 22:33N 36°58' E 012°40'1212.2
2016-Jun-30 21:33N 37°02' E 012°26'1212.4
2016-Jun-30 20:33N 37°05' E 012°11'1212.6
2016-Jun-30 19:33N 37°09' E 011°56'1312.9
2016-Jun-30 18:33N 37°13' E 011°40'1313.0
2016-Jun-30 17:33N 37°17' E 011°25'1312.7
2016-Jun-30 16:33N 37°22' E 011°10'1212.2
2016-Jun-30 15:33N 37°25' E 010°55'1212.3
2016-Jun-30 14:33N 37°28' E 010°40'1212.4
2016-Jun-30 13:33N 37°31' E 010°25'1212.4
2016-Jun-30 12:33N 37°33' E 010°10'1312.8
2016-Jun-30 11:32N 37°32' E 009°53'1512.4
2016-Jun-30 10:22N 37°28' E 009°35'1012.4
2016-Jun-30 09:33N 37°25' E 009°23'1212.4
2016-Jun-30 08:33N 37°22' E 009°08'1312.3
2016-Jun-30 07:29N 37°18' E 008°52'3712.5
2016-Jun-30 04:32N 37°17' E 008°06'11012.3
2016-Jun-29 19:33N 37°18' E 005°48'16112.1
2016-Jun-29 06:13N 37°05' E 002°26'14612.4
2016-Jun-28 18:23N 36°30' W 000°31'1011.7
2016-Jun-28 17:33N 36°27' W 000°43'22411.8
2016-Jun-27 22:33N 35°59' W 005°19'15411.9
2016-Jun-27 09:33N 36°23' W 008°27'1412.7
2016-Jun-27 08:26N 36°27' W 008°44'1112.6
2016-Jun-27 07:34N 36°30' W 008°58'1312.5
2016-Jun-27 06:33N 36°33' W 009°13'1311.8
2016-Jun-27 05:28N 36°41' W 009°25'1211.6
2016-Jun-27 04:27N 36°50' W 009°34'3912.7
2016-Jun-27 01:24N 37°28' W 009°46'1112.6
2016-Jun-27 00:33N 37°38' W 009°50'1512.5
2016-Jun-26 23:23N 37°52' W 009°55'1012.7
2016-Jun-26 22:33N 38°02' W 009°59'1312.7
2016-Jun-26 21:33N 38°15' W 010°01'1312.7
2016-Jun-26 20:33N 38°27' W 010°03'1312.7
2016-Jun-26 19:33N 38°40' W 010°06'1512.7
2016-Jun-26 18:23N 38°55' W 010°06'1112.4
2016-Jun-26 17:31N 39°05' W 010°06'  

Dump ship's entire track history